Skip Navigation Links Skip Navigation Links

Current Weather

Chicago Executive, Wheeling, Ill.

For information only: do not use for flight planning or navigation.
Latest weather
Observation time Friday, February 28, 2020 4:52 AM CST
Local time Friday, February 28, 2020 5:29 AM CST
Flight conditions Visual Meteorological Conditions
Winds
Wind direction West-Northwest (300°)
Wind speed 9 mph
Visibility 10 mi.
Sky condition
Ceiling 8,500 ft. broken clouds
Cloud layer broken clouds 8,500 ft.
Temperature 20°F
Dewpoint 5°F
Altimeter 30.04 in.Hg
Derived measurements
Relative humidity 52%
Wind chill 9°F
Density altitude -2148 ft.
Sea-level pressure 30.06 in.Hg
Remarks
Fully automated report.
Automated weather observing station with precipitation discriminator.
METAR KPWK 281052Z AUTO 30008KT 10SM BKN085 M07/M15 A3004 RMK AO2 SLP181 T10671150

Settings

Location code

InnerDrive.Weather 4.0.6770.0 Release CLR 4.0.30319.42000
Copyright ©2018 Inner Drive Technology. All rights reserved. Portions Copyright ©1986-2018 David Braverman.

Find weather

Site navigation


Skip Navigation Links

Place info

Page info

PayPal - The safer, easier way to pay online!

Return home.

Copyright ©2020 Inner Drive Technology. Purveyors of fine, hand-crafted computer software. Page printed 2020-02-28T11:29:43 UTC.